sensor_id;sensor_type;location;lat;lon;timestamp;temperature;humidity
24632;DHT22;59977;48.782;9.190;2022-12-18T00:02:14;-3.90;99.90
24632;DHT22;59977;48.782;9.190;2022-12-18T00:04:40;-3.90;99.90
24632;DHT22;59977;48.782;9.190;2022-12-18T00:07:05;-3.90;99.90
24632;DHT22;59977;48.782;9.190;2022-12-18T00:09:31;-3.90;99.90
24632;DHT22;59977;48.782;9.190;2022-12-18T00:11:56;-3.90;99.90
24632;DHT22;59977;48.782;9.190;2022-12-18T00:14:22;-3.90;99.90
24632;DHT22;59977;48.782;9.190;2022-12-18T00:16:48;-4.10;99.90
24632;DHT22;59977;48.782;9.190;2022-12-18T00:19:14;-4.20;99.90
24632;DHT22;59977;48.782;9.190;2022-12-18T00:21:40;-4.10;99.90
24632;DHT22;59977;48.782;9.190;2022-12-18T00:24:06;-4.00;99.90
24632;DHT22;59977;48.782;9.190;2022-12-18T00:26:34;-4.00;99.90
24632;DHT22;59977;48.782;9.190;2022-12-18T00:29:11;-4.00;99.90
24632;DHT22;59977;48.782;9.190;2022-12-18T00:31:39;-4.10;99.90
24632;DHT22;59977;48.782;9.190;2022-12-18T00:34:05;-4.10;99.90
24632;DHT22;59977;48.782;9.190;2022-12-18T00:36:33;-4.10;99.90
24632;DHT22;59977;48.782;9.190;2022-12-18T00:39:01;-4.10;99.90
24632;DHT22;59977;48.782;9.190;2022-12-18T00:41:27;-4.10;99.90
24632;DHT22;59977;48.782;9.190;2022-12-18T00:44:13;-4.10;99.90
24632;DHT22;59977;48.782;9.190;2022-12-18T00:46:40;-4.30;99.90
24632;DHT22;59977;48.782;9.190;2022-12-18T00:49:06;-4.30;99.90
24632;DHT22;59977;48.782;9.190;2022-12-18T00:51:32;-4.30;99.90
24632;DHT22;59977;48.782;9.190;2022-12-18T00:53:57;-4.30;99.90
24632;DHT22;59977;48.782;9.190;2022-12-18T00:56:23;-4.40;99.90
24632;DHT22;59977;48.782;9.190;2022-12-18T00:58:49;-4.40;99.90
24632;DHT22;59977;48.782;9.190;2022-12-18T01:01:15;-4.40;99.90
24632;DHT22;59977;48.782;9.190;2022-12-18T01:03:41;-4.30;99.90
24632;DHT22;59977;48.782;9.190;2022-12-18T01:06:08;-4.30;99.90
24632;DHT22;59977;48.782;9.190;2022-12-18T01:08:34;-4.30;99.90
24632;DHT22;59977;48.782;9.190;2022-12-18T01:11:06;-4.20;99.90
24632;DHT22;59977;48.782;9.190;2022-12-18T01:13:31;-4.20;99.90
24632;DHT22;59977;48.782;9.190;2022-12-18T01:15:57;-2.80;99.90
24632;DHT22;59977;48.782;9.190;2022-12-18T01:18:23;-4.30;99.90
24632;DHT22;59977;48.782;9.190;2022-12-18T01:20:48;-4.30;99.90
24632;DHT22;59977;48.782;9.190;2022-12-18T01:23:14;-4.40;99.90
24632;DHT22;59977;48.782;9.190;2022-12-18T01:25:39;-4.40;99.90
24632;DHT22;59977;48.782;9.190;2022-12-18T01:28:05;-3.90;99.90
24632;DHT22;59977;48.782;9.190;2022-12-18T01:30:30;-4.30;99.90
24632;DHT22;59977;48.782;9.190;2022-12-18T01:32:56;-4.20;99.90
24632;DHT22;59977;48.782;9.190;2022-12-18T01:35:22;-4.20;99.90
24632;DHT22;59977;48.782;9.190;2022-12-18T01:37:47;-4.20;99.90
24632;DHT22;59977;48.782;9.190;2022-12-18T01:40:13;-4.30;99.90
24632;DHT22;59977;48.782;9.190;2022-12-18T01:42:38;-4.30;99.90
24632;DHT22;59977;48.782;9.190;2022-12-18T01:45:05;-4.20;99.90
24632;DHT22;59977;48.782;9.190;2022-12-18T01:47:59;-4.30;99.90
24632;DHT22;59977;48.782;9.190;2022-12-18T01:50:37;-4.30;99.90
24632;DHT22;59977;48.782;9.190;2022-12-18T01:53:17;-4.30;99.90
24632;DHT22;59977;48.782;9.190;2022-12-18T01:55:48;-4.20;99.90
24632;DHT22;59977;48.782;9.190;2022-12-18T01:58:18;-4.20;99.90
24632;DHT22;59977;48.782;9.190;2022-12-18T02:00:44;-4.30;99.90
24632;DHT22;59977;48.782;9.190;2022-12-18T02:03:10;-4.30;99.90
24632;DHT22;59977;48.782;9.190;2022-12-18T02:05:44;-4.40;99.90
24632;DHT22;59977;48.782;9.190;2022-12-18T02:18:59;-4.30;99.90
24632;DHT22;59977;48.782;9.190;2022-12-18T02:21:57;-4.30;99.90
24632;DHT22;59977;48.782;9.190;2022-12-18T02:24:45;-4.20;99.90
24632;DHT22;59977;48.782;9.190;2022-12-18T02:27:12;-4.20;99.90
24632;DHT22;59977;48.782;9.190;2022-12-18T02:29:49;-4.30;99.90
24632;DHT22;59977;48.782;9.190;2022-12-18T02:32:21;-2.70;99.90
24632;DHT22;59977;48.782;9.190;2022-12-18T09:41:32;-3.60;99.90
24632;DHT22;59977;48.782;9.190;2022-12-18T09:46:53;-2.90;99.90
24632;DHT22;59977;48.782;9.190;2022-12-18T09:49:30;-3.50;99.90
24632;DHT22;59977;48.782;9.190;2022-12-18T09:52:11;-1.80;99.90
24632;DHT22;59977;48.782;9.190;2022-12-18T09:54:52;-3.00;99.90
24632;DHT22;59977;48.782;9.190;2022-12-18T09:57:22;-2.90;99.90
24632;DHT22;59977;48.782;9.190;2022-12-18T09:59:56;-2.80;99.90
24632;DHT22;59977;48.782;9.190;2022-12-18T10:02:25;-2.80;99.90
24632;DHT22;59977;48.782;9.190;2022-12-18T10:05:13;-1.70;99.90
24632;DHT22;59977;48.782;9.190;2022-12-18T10:10:38;-2.80;99.90
24632;DHT22;59977;48.782;9.190;2022-12-18T10:13:12;-2.70;99.90
24632;DHT22;59977;48.782;9.190;2022-12-18T10:20:58;-2.60;99.90
24632;DHT22;59977;48.782;9.190;2022-12-18T10:26:18;-2.50;99.90
24632;DHT22;59977;48.782;9.190;2022-12-18T10:28:44;-2.40;99.90
24632;DHT22;59977;48.782;9.190;2022-12-18T10:31:19;-2.30;99.90
24632;DHT22;59977;48.782;9.190;2022-12-18T10:33:45;-2.20;99.90
24632;DHT22;59977;48.782;9.190;2022-12-18T10:36:10;-2.20;99.90
24632;DHT22;59977;48.782;9.190;2022-12-18T10:38:36;-0.70;99.90
24632;DHT22;59977;48.782;9.190;2022-12-18T10:41:25;-2.10;99.90
24632;DHT22;59977;48.782;9.190;2022-12-18T10:44:17;-0.60;99.90
24632;DHT22;59977;48.782;9.190;2022-12-18T10:46:53;-2.10;99.90
24632;DHT22;59977;48.782;9.190;2022-12-18T10:49:26;-2.00;99.90
24632;DHT22;59977;48.782;9.190;2022-12-18T10:52:04;-1.80;99.90
24632;DHT22;59977;48.782;9.190;2022-12-18T10:54:30;-1.10;99.90
24632;DHT22;59977;48.782;9.190;2022-12-18T10:59:54;-1.50;99.90
24632;DHT22;59977;48.782;9.190;2022-12-18T11:02:37;-1.40;99.90
24632;DHT22;59977;48.782;9.190;2022-12-18T11:05:32;-1.30;99.90
24632;DHT22;59977;48.782;9.190;2022-12-18T11:08:00;-1.30;99.90
24632;DHT22;59977;48.782;9.190;2022-12-18T11:10:34;-1.30;99.90
24632;DHT22;59977;48.782;9.190;2022-12-18T11:13:18;-1.40;99.90
24632;DHT22;59977;48.782;9.190;2022-12-18T11:15:45;-1.40;99.90
24632;DHT22;59977;48.782;9.190;2022-12-18T11:18:25;-1.40;99.90
24632;DHT22;59977;48.782;9.190;2022-12-18T11:20:54;-1.30;99.90
24632;DHT22;59977;48.782;9.190;2022-12-18T11:23:21;-0.30;99.90
24632;DHT22;59977;48.782;9.190;2022-12-18T11:25:56;-1.20;99.90
24632;DHT22;59977;48.782;9.190;2022-12-18T11:36:41;-1.10;99.90
24632;DHT22;59977;48.782;9.190;2022-12-18T11:39:42;-1.90;99.90
24632;DHT22;59977;48.782;9.190;2022-12-18T11:47:59;-0.70;99.90
24632;DHT22;59977;48.782;9.190;2022-12-18T11:53:03;-0.60;99.90
24632;DHT22;59977;48.782;9.190;2022-12-18T11:55:51;-0.50;99.90
24632;DHT22;59977;48.782;9.190;2022-12-18T12:04:30;-0.40;99.90
24632;DHT22;59977;48.782;9.190;2022-12-18T12:09:43;-0.40;99.90
24632;DHT22;59977;48.782;9.190;2022-12-18T12:15:26;-0.50;99.90
24632;DHT22;59977;48.782;9.190;2022-12-18T12:23:19;-0.50;99.90
24632;DHT22;59977;48.782;9.190;2022-12-18T12:26:00;-0.40;99.90
24632;DHT22;59977;48.782;9.190;2022-12-18T12:29:04;-0.30;99.90
24632;DHT22;59977;48.782;9.190;2022-12-18T12:34:46;-0.20;99.90
24632;DHT22;59977;48.782;9.190;2022-12-18T12:39:52;-0.20;99.90
24632;DHT22;59977;48.782;9.190;2022-12-18T12:42:38;1.50;99.90
24632;DHT22;59977;48.782;9.190;2022-12-18T12:45:34;-0.20;99.90
24632;DHT22;59977;48.782;9.190;2022-12-18T12:48:02;-0.30;99.90
24632;DHT22;59977;48.782;9.190;2022-12-18T12:50:31;-0.30;99.90
24632;DHT22;59977;48.782;9.190;2022-12-18T12:53:01;-0.30;99.90
24632;DHT22;59977;48.782;9.190;2022-12-18T12:55:30;-0.30;99.90
24632;DHT22;59977;48.782;9.190;2022-12-18T13:00:43;-0.10;99.90
24632;DHT22;59977;48.782;9.190;2022-12-18T13:03:34;0.70;99.90
24632;DHT22;59977;48.782;9.190;2022-12-18T13:06:16;-0.20;99.90
24632;DHT22;59977;48.782;9.190;2022-12-18T13:08:58;-0.10;99.90
24632;DHT22;59977;48.782;9.190;2022-12-18T13:11:42;-0.10;99.90
24632;DHT22;59977;48.782;9.190;2022-12-18T13:14:34;-0.10;99.90
24632;DHT22;59977;48.782;9.190;2022-12-18T13:19:43;-0.10;99.90
24632;DHT22;59977;48.782;9.190;2022-12-18T13:22:23;-0.10;99.90
24632;DHT22;59977;48.782;9.190;2022-12-18T13:24:50;-0.10;99.90
24632;DHT22;59977;48.782;9.190;2022-12-18T13:36:00;0.20;99.90
24632;DHT22;59977;48.782;9.190;2022-12-18T13:38:37;0.20;99.90
24632;DHT22;59977;48.782;9.190;2022-12-18T13:43:48;0.20;99.90
24632;DHT22;59977;48.782;9.190;2022-12-18T13:48:56;0.40;99.90
24632;DHT22;59977;48.782;9.190;2022-12-18T13:51:23;0.40;99.90
24632;DHT22;59977;48.782;9.190;2022-12-18T13:54:13;0.50;99.90
24632;DHT22;59977;48.782;9.190;2022-12-18T13:56:46;0.60;99.90
24632;DHT22;59977;48.782;9.190;2022-12-18T13:59:15;0.60;99.90
24632;DHT22;59977;48.782;9.190;2022-12-18T14:04:34;0.70;99.90
24632;DHT22;59977;48.782;9.190;2022-12-18T14:07:36;0.70;99.90
24632;DHT22;59977;48.782;9.190;2022-12-18T14:10:03;0.60;99.90
24632;DHT22;59977;48.782;9.190;2022-12-18T14:12:33;0.50;99.90
24632;DHT22;59977;48.782;9.190;2022-12-18T14:18:23;0.50;99.90
24632;DHT22;59977;48.782;9.190;2022-12-18T14:20:51;0.40;99.90
24632;DHT22;59977;48.782;9.190;2022-12-18T14:23:30;1.80;99.90
24632;DHT22;59977;48.782;9.190;2022-12-18T14:25:56;0.40;99.90
24632;DHT22;59977;48.782;9.190;2022-12-18T14:28:22;0.30;99.90
24632;DHT22;59977;48.782;9.190;2022-12-18T14:30:51;0.30;99.90
24632;DHT22;59977;48.782;9.190;2022-12-18T14:33:20;0.80;99.90
24632;DHT22;59977;48.782;9.190;2022-12-18T14:38:31;0.10;99.90
24632;DHT22;59977;48.782;9.190;2022-12-18T14:41:15;0.10;99.90
24632;DHT22;59977;48.782;9.190;2022-12-18T14:43:43;0.10;99.90
24632;DHT22;59977;48.782;9.190;2022-12-18T14:48:55;0.00;99.90
24632;DHT22;59977;48.782;9.190;2022-12-18T14:51:32;0.00;99.90
24632;DHT22;59977;48.782;9.190;2022-12-18T14:54:03;-0.10;99.90
24632;DHT22;59977;48.782;9.190;2022-12-18T14:56:37;-0.10;99.90
24632;DHT22;59977;48.782;9.190;2022-12-18T14:59:16;-0.20;99.90
24632;DHT22;59977;48.782;9.190;2022-12-18T15:01:46;-0.20;99.90
24632;DHT22;59977;48.782;9.190;2022-12-18T15:09:29;-0.40;99.90
24632;DHT22;59977;48.782;9.190;2022-12-18T15:11:58;-0.40;99.90
24632;DHT22;59977;48.782;9.190;2022-12-18T15:16:56;-0.60;99.90
24632;DHT22;59977;48.782;9.190;2022-12-18T15:19:35;-0.60;99.90
24632;DHT22;59977;48.782;9.190;2022-12-18T15:22:01;-0.60;99.90
24632;DHT22;59977;48.782;9.190;2022-12-18T15:24:31;-0.60;99.90
24632;DHT22;59977;48.782;9.190;2022-12-18T15:26:58;-0.60;99.90
24632;DHT22;59977;48.782;9.190;2022-12-18T15:29:24;-0.60;99.90
24632;DHT22;59977;48.782;9.190;2022-12-18T15:32:03;-0.70;99.90
24632;DHT22;59977;48.782;9.190;2022-12-18T15:34:30;-0.10;99.90
24632;DHT22;59977;48.782;9.190;2022-12-18T15:36:56;-0.70;99.90
24632;DHT22;59977;48.782;9.190;2022-12-18T15:39:22;-0.80;99.90
24632;DHT22;59977;48.782;9.190;2022-12-18T15:41:48;-0.80;99.90
24632;DHT22;59977;48.782;9.190;2022-12-18T15:44:32;-0.80;99.90
24632;DHT22;59977;48.782;9.190;2022-12-18T15:46:58;-0.90;99.90
24632;DHT22;59977;48.782;9.190;2022-12-18T15:49:24;-1.00;99.90
24632;DHT22;59977;48.782;9.190;2022-12-18T15:51:52;-1.00;99.90
24632;DHT22;59977;48.782;9.190;2022-12-18T15:54:19;-1.00;99.90
24632;DHT22;59977;48.782;9.190;2022-12-18T15:57:07;-0.90;99.90
24632;DHT22;59977;48.782;9.190;2022-12-18T15:59:49;-0.90;99.90
24632;DHT22;59977;48.782;9.190;2022-12-18T16:02:17;-0.90;99.90
24632;DHT22;59977;48.782;9.190;2022-12-18T16:04:43;-0.90;99.90
24632;DHT22;59977;48.782;9.190;2022-12-18T16:07:11;-0.90;99.90
24632;DHT22;59977;48.782;9.190;2022-12-18T16:09:37;0.60;99.90
24632;DHT22;59977;48.782;9.190;2022-12-18T16:12:02;-0.80;99.90
24632;DHT22;59977;48.782;9.190;2022-12-18T16:14:29;-0.90;99.90
24632;DHT22;59977;48.782;9.190;2022-12-18T16:16:58;-0.90;99.90
24632;DHT22;59977;48.782;9.190;2022-12-18T16:19:24;-0.90;99.90
24632;DHT22;59977;48.782;9.190;2022-12-18T16:21:52;-0.30;99.90
24632;DHT22;59977;48.782;9.190;2022-12-18T16:24:23;-0.80;99.90
24632;DHT22;59977;48.782;9.190;2022-12-18T16:26:50;-0.80;99.90
24632;DHT22;59977;48.782;9.190;2022-12-18T16:29:19;0.00;99.90
24632;DHT22;59977;48.782;9.190;2022-12-18T16:32:01;-0.90;99.90
24632;DHT22;59977;48.782;9.190;2022-12-18T16:34:29;-0.80;99.90
24632;DHT22;59977;48.782;9.190;2022-12-18T16:37:05;-0.80;99.90
24632;DHT22;59977;48.782;9.190;2022-12-18T16:39:31;-0.80;99.90
24632;DHT22;59977;48.782;9.190;2022-12-18T16:41:58;-0.80;99.90
24632;DHT22;59977;48.782;9.190;2022-12-18T16:44:24;-0.80;99.90
24632;DHT22;59977;48.782;9.190;2022-12-18T16:46:50;-0.80;99.90
24632;DHT22;59977;48.782;9.190;2022-12-18T16:49:17;-0.80;99.90
24632;DHT22;59977;48.782;9.190;2022-12-18T16:51:45;-0.80;99.90
24632;DHT22;59977;48.782;9.190;2022-12-18T16:54:11;-0.70;99.90
24632;DHT22;59977;48.782;9.190;2022-12-18T16:56:37;-0.70;99.90
24632;DHT22;59977;48.782;9.190;2022-12-18T16:59:03;0.40;99.90
24632;DHT22;59977;48.782;9.190;2022-12-18T17:01:30;-0.70;99.90
24632;DHT22;59977;48.782;9.190;2022-12-18T17:04:01;-0.70;99.90
24632;DHT22;59977;48.782;9.190;2022-12-18T17:06:29;-0.70;99.90
24632;DHT22;59977;48.782;9.190;2022-12-18T17:09:05;-0.60;99.90
24632;DHT22;59977;48.782;9.190;2022-12-18T17:11:32;-0.60;99.90
24632;DHT22;59977;48.782;9.190;2022-12-18T17:13:59;-0.60;99.90
24632;DHT22;59977;48.782;9.190;2022-12-18T17:16:24;-0.40;99.90
24632;DHT22;59977;48.782;9.190;2022-12-18T17:18:52;-0.50;99.90
24632;DHT22;59977;48.782;9.190;2022-12-18T17:21:18;1.10;99.90
24632;DHT22;59977;48.782;9.190;2022-12-18T17:23:44;-0.50;99.90
24632;DHT22;59977;48.782;9.190;2022-12-18T17:26:11;-0.50;99.90
24632;DHT22;59977;48.782;9.190;2022-12-18T17:28:38;0.70;99.90
24632;DHT22;59977;48.782;9.190;2022-12-18T17:31:18;-0.90;99.90
24632;DHT22;59977;48.782;9.190;2022-12-18T17:33:45;-0.60;99.90
24632;DHT22;59977;48.782;9.190;2022-12-18T17:36:11;-0.60;99.90
24632;DHT22;59977;48.782;9.190;2022-12-18T17:38:37;-0.60;99.90
24632;DHT22;59977;48.782;9.190;2022-12-18T17:41:06;-0.60;99.90
24632;DHT22;59977;48.782;9.190;2022-12-18T17:43:33;-0.50;99.90
24632;DHT22;59977;48.782;9.190;2022-12-18T17:46:04;-0.50;99.90
24632;DHT22;59977;48.782;9.190;2022-12-18T17:48:30;-0.50;99.90
24632;DHT22;59977;48.782;9.190;2022-12-18T17:51:00;-0.50;99.90
24632;DHT22;59977;48.782;9.190;2022-12-18T17:53:27;-0.50;99.90
24632;DHT22;59977;48.782;9.190;2022-12-18T17:55:54;-0.50;99.90
24632;DHT22;59977;48.782;9.190;2022-12-18T17:58:20;-0.50;99.90
24632;DHT22;59977;48.782;9.190;2022-12-18T18:00:46;-0.50;99.90
24632;DHT22;59977;48.782;9.190;2022-12-18T18:03:12;-0.40;99.90
24632;DHT22;59977;48.782;9.190;2022-12-18T18:05:37;-0.50;99.90
24632;DHT22;59977;48.782;9.190;2022-12-18T18:08:03;-0.50;99.90
24632;DHT22;59977;48.782;9.190;2022-12-18T18:10:29;-0.40;99.90
24632;DHT22;59977;48.782;9.190;2022-12-18T18:12:55;0.60;99.90
24632;DHT22;59977;48.782;9.190;2022-12-18T18:15:39;-0.50;99.90
24632;DHT22;59977;48.782;9.190;2022-12-18T18:18:05;-0.40;99.90
24632;DHT22;59977;48.782;9.190;2022-12-18T18:20:30;-0.40;99.90
24632;DHT22;59977;48.782;9.190;2022-12-18T18:22:57;-0.30;99.90
24632;DHT22;59977;48.782;9.190;2022-12-18T18:25:22;-0.30;99.90
24632;DHT22;59977;48.782;9.190;2022-12-18T18:27:48;0.20;99.90
24632;DHT22;59977;48.782;9.190;2022-12-18T18:30:13;-0.20;99.90
24632;DHT22;59977;48.782;9.190;2022-12-18T18:32:39;1.40;99.90
24632;DHT22;59977;48.782;9.190;2022-12-18T18:35:06;-0.20;99.90
24632;DHT22;59977;48.782;9.190;2022-12-18T18:37:33;-0.20;99.90
24632;DHT22;59977;48.782;9.190;2022-12-18T18:40:02;-0.20;99.90
24632;DHT22;59977;48.782;9.190;2022-12-18T18:42:28;-0.10;99.90
24632;DHT22;59977;48.782;9.190;2022-12-18T18:44:54;-0.10;99.90
24632;DHT22;59977;48.782;9.190;2022-12-18T18:47:19;0.70;99.90
24632;DHT22;59977;48.782;9.190;2022-12-18T18:49:45;-0.10;99.90
24632;DHT22;59977;48.782;9.190;2022-12-18T18:52:11;-0.10;99.90
24632;DHT22;59977;48.782;9.190;2022-12-18T18:54:37;-0.10;99.90
24632;DHT22;59977;48.782;9.190;2022-12-18T18:57:02;-0.20;99.90
24632;DHT22;59977;48.782;9.190;2022-12-18T18:59:29;0.80;99.90
24632;DHT22;59977;48.782;9.190;2022-12-18T19:01:54;-0.20;99.90
24632;DHT22;59977;48.782;9.190;2022-12-18T19:04:20;-0.20;99.90
24632;DHT22;59977;48.782;9.190;2022-12-18T19:06:45;-0.20;99.90
24632;DHT22;59977;48.782;9.190;2022-12-18T19:09:12;-0.20;99.90
24632;DHT22;59977;48.782;9.190;2022-12-18T19:11:38;-0.30;99.90
24632;DHT22;59977;48.782;9.190;2022-12-18T19:14:22;-0.20;99.90
24632;DHT22;59977;48.782;9.190;2022-12-18T19:16:48;-0.20;99.90
24632;DHT22;59977;48.782;9.190;2022-12-18T19:19:14;-0.30;99.90
24632;DHT22;59977;48.782;9.190;2022-12-18T19:21:42;-0.20;99.90
24632;DHT22;59977;48.782;9.190;2022-12-18T19:24:09;-0.20;99.90
24632;DHT22;59977;48.782;9.190;2022-12-18T19:26:34;-0.30;99.90
24632;DHT22;59977;48.782;9.190;2022-12-18T19:29:05;-0.20;99.90
24632;DHT22;59977;48.782;9.190;2022-12-18T19:31:30;-0.30;99.90
24632;DHT22;59977;48.782;9.190;2022-12-18T19:33:58;-0.30;99.90
24632;DHT22;59977;48.782;9.190;2022-12-18T19:36:26;0.90;99.90
24632;DHT22;59977;48.782;9.190;2022-12-18T19:38:54;-0.30;99.90
24632;DHT22;59977;48.782;9.190;2022-12-18T19:41:20;-0.30;99.90
24632;DHT22;59977;48.782;9.190;2022-12-18T19:43:47;-0.20;99.90
24632;DHT22;59977;48.782;9.190;2022-12-18T19:46:14;-0.20;99.90
24632;DHT22;59977;48.782;9.190;2022-12-18T19:48:41;-0.20;99.90
24632;DHT22;59977;48.782;9.190;2022-12-18T19:51:12;-0.10;99.90
24632;DHT22;59977;48.782;9.190;2022-12-18T19:53:38;-0.10;99.90
24632;DHT22;59977;48.782;9.190;2022-12-18T19:56:10;-0.10;99.90
24632;DHT22;59977;48.782;9.190;2022-12-18T19:58:36;-0.10;99.90
24632;DHT22;59977;48.782;9.190;2022-12-18T20:01:03;-0.10;99.90
24632;DHT22;59977;48.782;9.190;2022-12-18T20:03:28;0.00;99.90
24632;DHT22;59977;48.782;9.190;2022-12-18T20:05:55;0.00;99.90
24632;DHT22;59977;48.782;9.190;2022-12-18T20:08:20;0.10;99.90
24632;DHT22;59977;48.782;9.190;2022-12-18T20:10:46;0.20;99.90
24632;DHT22;59977;48.782;9.190;2022-12-18T20:13:15;0.20;99.90
24632;DHT22;59977;48.782;9.190;2022-12-18T20:15:40;0.30;99.90
24632;DHT22;59977;48.782;9.190;2022-12-18T20:18:08;0.10;99.90
24632;DHT22;59977;48.782;9.190;2022-12-18T20:20:33;1.20;99.90
24632;DHT22;59977;48.782;9.190;2022-12-18T20:22:59;1.20;99.90
24632;DHT22;59977;48.782;9.190;2022-12-18T20:25:25;0.10;99.90
24632;DHT22;59977;48.782;9.190;2022-12-18T20:27:50;0.20;99.90
24632;DHT22;59977;48.782;9.190;2022-12-18T20:30:16;0.10;99.90
24632;DHT22;59977;48.782;9.190;2022-12-18T20:32:41;0.10;99.90
24632;DHT22;59977;48.782;9.190;2022-12-18T20:35:07;0.10;99.90
24632;DHT22;59977;48.782;9.190;2022-12-18T20:37:33;0.10;99.90
24632;DHT22;59977;48.782;9.190;2022-12-18T20:39:58;0.00;99.90
24632;DHT22;59977;48.782;9.190;2022-12-18T20:42:24;0.60;99.90
24632;DHT22;59977;48.782;9.190;2022-12-18T20:44:49;0.00;99.90
24632;DHT22;59977;48.782;9.190;2022-12-18T20:47:15;1.50;99.90
24632;DHT22;59977;48.782;9.190;2022-12-18T20:49:41;-0.10;99.90
24632;DHT22;59977;48.782;9.190;2022-12-18T20:52:06;-0.10;99.90
24632;DHT22;59977;48.782;9.190;2022-12-18T20:54:33;-0.10;99.90
24632;DHT22;59977;48.782;9.190;2022-12-18T20:56:59;0.10;99.90
24632;DHT22;59977;48.782;9.190;2022-12-18T20:59:25;-0.20;99.90
24632;DHT22;59977;48.782;9.190;2022-12-18T21:01:51;1.20;99.90
24632;DHT22;59977;48.782;9.190;2022-12-18T21:04:17;1.30;99.90
24632;DHT22;59977;48.782;9.190;2022-12-18T21:06:43;-0.10;99.90
24632;DHT22;59977;48.782;9.190;2022-12-18T21:19:31;0.00;99.90
24632;DHT22;59977;48.782;9.190;2022-12-18T22:15:48;0.10;99.90
24632;DHT22;59977;48.782;9.190;2022-12-18T22:18:14;0.10;99.90
24632;DHT22;59977;48.782;9.190;2022-12-18T22:20:40;0.10;99.90
24632;DHT22;59977;48.782;9.190;2022-12-18T22:23:05;0.10;99.90
24632;DHT22;59977;48.782;9.190;2022-12-18T22:25:32;0.00;99.90
24632;DHT22;59977;48.782;9.190;2022-12-18T22:27:57;0.10;99.90
24632;DHT22;59977;48.782;9.190;2022-12-18T22:30:41;0.00;99.90
24632;DHT22;59977;48.782;9.190;2022-12-18T22:33:07;0.10;99.90
24632;DHT22;59977;48.782;9.190;2022-12-18T22:35:32;0.10;99.90
24632;DHT22;59977;48.782;9.190;2022-12-18T22:37:58;0.20;99.90
24632;DHT22;59977;48.782;9.190;2022-12-18T22:40:24;0.10;99.90
